National Weather Service Raw Text Product

Displaying AFOS PIL: TAFFOD Received: 2018-02-09 08:58 UTC


963 
FTUS43 KDMX 090858 AAA
TAFFOD
TAF AMD
KFOD 090858Z 0909/1006 03012G18KT 6SM -SN BLSN SCT025 OVC060
     FM091800 02008KT P6SM BKN150=